Time;durP1;ratioP1;P1;durP2;ratioP2;P2;SDS_P1;SDS_P2;PMS_P1;PMS_P2;Temp;Humidity;BMP_temperature;BMP_pressure;BME280_temperature;BME280_humidity;BME280_pressure;Samples;Min_cycle;Max_cycle;Signal;HPM_P1;HPM_P2
2021/01/20 00:01:39;;;;;;;;;;;8.10;98.90;;;;;;5063543;28;19912;-70
2021/01/20 00:04:04;;;;;;;;;;;8.10;98.90;;;;;;5082887;28;19916;-70
2021/01/20 00:06:30;;;;;;;;;;;8.00;99.00;;;;;;5057283;28;20545;-70
2021/01/20 00:08:56;;;;;;;;;;;8.00;99.00;;;;;;5082653;28;19943;-70
2021/01/20 00:11:25;;;;;;;;;;;8.00;99.00;;;;;;5059549;28;19912;-69
2021/01/20 00:13:52;;;;;;;;;;;8.00;99.00;;;;;;5051078;28;19908;-70
2021/01/20 00:16:18;;;;;;;;;;;8.00;98.80;;;;;;5055420;28;20007;-70
2021/01/20 00:18:43;;;;;;;;;;;8.00;98.90;;;;;;5057550;28;20356;-70
2021/01/20 00:21:09;;;;;;;;;;;8.00;98.90;;;;;;5058916;28;19919;-70
2021/01/20 00:23:35;;;;;;;;;;;8.00;98.90;;;;;;5079604;28;20583;-70
2021/01/20 00:26:00;;;;;;;;;;;7.90;98.90;;;;;;5080918;28;19913;-70
2021/01/20 00:28:26;;;;;;;;;;;7.90;99.00;;;;;;5082027;28;19963;-69
2021/01/20 00:30:54;;;;;;;;;;;8.00;99.00;;;;;;5061263;28;19920;-70
2021/01/20 00:33:19;;;;;;;;;;;8.00;98.90;;;;;;5061463;28;19924;-70
2021/01/20 00:35:45;;;;;;;;;;;7.90;98.90;;;;;;5061424;28;19918;-71
2021/01/20 00:38:10;;;;;;;;;;;7.90;98.60;;;;;;5065738;28;19913;-70
2021/01/20 00:40:36;;;;;;;;;;;7.90;98.30;;;;;;5081200;28;19984;-70
2021/01/20 00:43:01;;;;;;;;;;;7.80;98.40;;;;;;5054573;28;19912;-71
2021/01/20 00:45:27;;;;;;;;;;;7.90;98.40;;;;;;5057948;28;19908;-70
2021/01/20 00:47:52;;;;;;;;;;;7.90;98.00;;;;;;5059194;28;20298;-70
2021/01/20 00:50:18;;;;;;;;;;;7.80;98.20;;;;;;5064748;28;20282;-70
2021/01/20 00:52:43;;;;;;;;;;;7.80;98.20;;;;;;5065974;28;19908;-70
2021/01/20 00:55:10;;;;;;;;;;;7.70;98.40;;;;;;5087569;28;19927;-70
2021/01/20 00:57:36;;;;;;;;;;;7.70;98.50;;;;;;5085069;28;19918;-71
2021/01/20 01:00:03;;;;;;;;;;;7.70;98.50;;;;;;5081880;28;19908;-70
2021/01/20 01:02:29;;;;;;;;;;;7.60;98.50;;;;;;5060031;28;19963;-70
2021/01/20 01:04:54;;;;;;;;;;;7.70;98.10;;;;;;5069756;28;19908;-70
2021/01/20 01:07:20;;;;;;;;;;;7.70;97.80;;;;;;5060062;28;20252;-70
2021/01/20 01:09:45;;;;;;;;;;;7.60;98.10;;;;;;5085583;28;19948;-70
2021/01/20 01:12:11;;;;;;;;;;;7.60;98.30;;;;;;5057780;28;19912;-70
2021/01/20 01:14:36;;;;;;;;;;;7.60;98.10;;;;;;5068844;28;20018;-70
2021/01/20 01:17:02;;;;;;;;;;;7.60;98.30;;;;;;5048919;28;19916;-70
2021/01/20 01:19:28;;;;;;;;;;;7.50;98.40;;;;;;5065212;28;19908;-70
2021/01/20 01:21:53;;;;;;;;;;;7.50;98.50;;;;;;5065361;28;19946;-70
2021/01/20 01:24:19;;;;;;;;;;;7.50;98.40;;;;;;5072579;28;19916;-69
2021/01/20 01:26:44;;;;;;;;;;;7.50;98.60;;;;;;5062595;28;19998;-70
2021/01/20 01:29:10;;;;;;;;;;;7.50;98.70;;;;;;5067334;28;19908;-70
2021/01/20 01:31:35;;;;;;;;;;;7.40;98.60;;;;;;5088642;28;19912;-70
2021/01/20 01:34:01;;;;;;;;;;;7.40;98.20;;;;;;5068665;28;20367;-70
2021/01/20 01:36:27;;;;;;;;;;;7.50;98.20;;;;;;5072822;28;20282;-70
2021/01/20 01:38:52;;;;;;;;;;;7.50;98.40;;;;;;5071919;28;19954;-70
2021/01/20 01:41:18;;;;;;;;;;;7.40;98.40;;;;;;5061593;28;19911;-71
2021/01/20 01:43:43;;;;;;;;;;;7.30;98.40;;;;;;5072072;28;19951;-71
2021/01/20 01:46:09;;;;;;;;;;;7.40;98.30;;;;;;5065088;28;19912;-70
2021/01/20 01:48:34;;;;;;;;;;;7.30;98.40;;;;;;5045570;28;19919;-71
2021/01/20 01:51:00;;;;;;;;;;;7.30;98.50;;;;;;5070332;28;19912;-71
2021/01/20 01:53:25;;;;;;;;;;;7.30;98.50;;;;;;5088232;28;19912;-71
2021/01/20 01:55:51;;;;;;;;;;;7.30;98.50;;;;;;5089193;28;20298;-70
2021/01/20 01:58:16;;;;;;;;;;;7.30;98.40;;;;;;5087309;28;20338;-70
2021/01/20 02:00:42;;;;;;;;;;;7.30;98.20;;;;;;5059972;28;19970;-71
2021/01/20 02:03:07;;;;;;;;;;;7.30;98.30;;;;;;5063611;28;20267;-71
2021/01/20 02:05:33;;;;;;;;;;;7.30;98.20;;;;;;5089507;28;19962;-71
2021/01/20 02:08:01;;;;;;;;;;;7.20;98.30;;;;;;5045149;28;19912;-71
2021/01/20 02:10:27;;;;;;;;;;;7.20;98.10;;;;;;5066071;28;19927;-71
2021/01/20 02:13:16;;;;;;;;;;;7.10;98.20;;;;;;5070082;28;19908;-71
2021/01/20 02:16:17;;;;;;;;;;;7.10;98.30;;;;;;5068346;28;20422;-71
2021/01/20 02:18:43;;;;;;;;;;;7.10;98.30;;;;;;4984719;28;19948;-71
2021/01/20 02:21:25;;;;;;;;;;;7.10;98.20;;;;;;5049569;28;19998;-71
2021/01/20 02:23:51;;;;;;;;;;;7.10;98.00;;;;;;5067497;28;19908;-72
2021/01/20 02:26:35;;;;;;;;;;;7.10;98.40;;;;;;5073199;28;19997;-71
2021/01/20 02:29:13;;;;;;;;;;;7.10;98.30;;;;;;5066938;28;19914;-71
2021/01/20 02:31:40;;;;;;;;;;;7.10;98.20;;;;;;5063472;28;19918;-71
2021/01/20 02:34:07;;;;;;;;;;;7.00;98.40;;;;;;5082888;28;19912;-72
2021/01/20 02:36:33;;;;;;;;;;;7.00;98.30;;;;;;5064820;28;19996;-71
2021/01/20 02:39:00;;;;;;;;;;;7.00;98.20;;;;;;5083764;28;19967;-71
2021/01/20 02:41:26;;;;;;;;;;;6.90;98.00;;;;;;5085479;28;19977;-72
2021/01/20 02:43:52;;;;;;;;;;;6.90;98.20;;;;;;5066003;28;19908;-72
2021/01/20 02:46:19;;;;;;;;;;;6.90;98.40;;;;;;5062916;28;19916;-71
2021/01/20 02:48:45;;;;;;;;;;;6.90;98.40;;;;;;5050288;28;19912;-70
2021/01/20 02:51:11;;;;;;;;;;;6.90;98.40;;;;;;5085228;28;19974;-71
2021/01/20 02:53:37;;;;;;;;;;;6.90;98.30;;;;;;5082044;28;19916;-71
2021/01/20 02:56:06;;;;;;;;;;;6.90;98.40;;;;;;5062992;28;20451;-71
2021/01/20 02:58:32;;;;;;;;;;;6.80;98.50;;;;;;5074793;28;20007;-71
2021/01/20 03:01:01;;;;;;;;;;;6.80;98.50;;;;;;5063356;28;19908;-71
2021/01/20 03:03:28;;;;;;;;;;;6.80;98.30;;;;;;5081035;28;19940;-71
2021/01/20 03:05:54;;;;;;;;;;;6.70;98.30;;;;;;5051212;28;19915;-71
2021/01/20 03:08:19;;;;;;;;;;;6.70;98.30;;;;;;5058713;28;19915;-71
2021/01/20 03:10:45;;;;;;;;;;;6.80;98.30;;;;;;5068398;28;20351;-71
2021/01/20 03:13:11;;;;;;;;;;;6.70;98.30;;;;;;5069602;28;20252;-71
2021/01/20 03:15:41;;;;;;;;;;;6.70;98.10;;;;;;5086100;28;19944;-71
2021/01/20 03:18:07;;;;;;;;;;;6.70;98.10;;;;;;5086035;28;19904;-71
2021/01/20 03:20:32;;;;;;;;;;;6.70;98.30;;;;;;5055679;28;19909;-72
2021/01/20 03:22:58;;;;;;;;;;;6.70;98.00;;;;;;5049031;28;20292;-71
2021/01/20 03:25:23;;;;;;;;;;;6.70;98.10;;;;;;5060910;28;19916;-71
2021/01/20 03:27:52;;;;;;;;;;;6.70;97.80;;;;;;5062985;28;20026;-71
2021/01/20 03:30:18;;;;;;;;;;;6.60;98.00;;;;;;5062099;28;20800;-71
2021/01/20 03:32:44;;;;;;;;;;;6.60;98.10;;;;;;5058283;28;20019;-71
2021/01/20 03:35:10;;;;;;;;;;;6.50;98.20;;;;;;5087442;28;20290;-71
2021/01/20 03:37:36;;;;;;;;;;;6.50;98.40;;;;;;5068882;28;19915;-71
2021/01/20 03:40:02;;;;;;;;;;;6.50;98.40;;;;;;5049888;28;19908;-71
2021/01/20 03:42:28;;;;;;;;;;;6.60;98.30;;;;;;5052051;28;19966;-71
2021/01/20 03:44:53;;;;;;;;;;;6.60;98.00;;;;;;5062618;28;20356;-71
2021/01/20 03:47:19;;;;;;;;;;;6.60;98.10;;;;;;5047093;28;19931;-71
2021/01/20 03:49:44;;;;;;;;;;;6.60;98.30;;;;;;5065533;28;20271;-72
2021/01/20 03:52:10;;;;;;;;;;;6.50;98.20;;;;;;5050659;28;20363;-71
2021/01/20 03:54:35;;;;;;;;;;;6.50;98.20;;;;;;5081934;28;20361;-71
2021/01/20 03:57:01;;;;;;;;;;;6.50;98.10;;;;;;5083772;28;19947;-71
2021/01/20 03:59:27;;;;;;;;;;;6.40;98.10;;;;;;5063048;28;19912;-71
2021/01/20 04:01:53;;;;;;;;;;;6.40;98.30;;;;;;5053269;28;20441;-71
2021/01/20 04:04:18;;;;;;;;;;;6.50;98.30;;;;;;5059941;28;20661;-71
2021/01/20 04:06:45;;;;;;;;;;;6.50;97.90;;;;;;5065798;28;19930;-71
2021/01/20 04:09:10;;;;;;;;;;;6.50;97.90;;;;;;5063761;28;20344;-71
2021/01/20 04:11:36;;;;;;;;;;;6.50;98.10;;;;;;5082847;28;19952;-71
2021/01/20 04:14:01;;;;;;;;;;;6.50;97.80;;;;;;5080180;28;19908;-71
2021/01/20 04:16:27;;;;;;;;;;;6.50;97.90;;;;;;5045482;28;19915;-72
2021/01/20 04:18:53;;;;;;;;;;;6.50;98.00;;;;;;5061282;28;20402;-72
2021/01/20 04:21:18;;;;;;;;;;;6.50;98.10;;;;;;5058988;28;20011;-72
2021/01/20 04:23:44;;;;;;;;;;;6.50;97.80;;;;;;5068377;28;20521;-71
2021/01/20 04:26:09;;;;;;;;;;;6.50;98.00;;;;;;5064368;28;20283;-72
2021/01/20 04:28:35;;;;;;;;;;;6.40;97.90;;;;;;5083808;28;20543;-72
2021/01/20 04:31:02;;;;;;;;;;;6.50;97.90;;;;;;5078620;28;20545;-72
2021/01/20 04:33:28;;;;;;;;;;;6.40;98.00;;;;;;5065910;28;19905;-72
2021/01/20 04:35:54;;;;;;;;;;;6.40;98.20;;;;;;5077095;28;19909;-71
2021/01/20 04:38:20;;;;;;;;;;;6.40;98.20;;;;;;5059838;28;19919;-72
2021/01/20 04:40:45;;;;;;;;;;;6.30;98.10;;;;;;5085062;28;19908;-72
2021/01/20 04:43:11;;;;;;;;;;;6.40;98.30;;;;;;5050979;28;20276;-72
2021/01/20 04:45:37;;;;;;;;;;;6.30;98.10;;;;;;5082669;28;19985;-71
2021/01/20 04:48:03;;;;;;;;;;;6.30;98.10;;;;;;5056430;28;19991;-71
2021/01/20 04:50:33;;;;;;;;;;;6.40;98.30;;;;;;5060601;28;19915;-71
2021/01/20 04:53:05;;;;;;;;;;;6.30;98.10;;;;;;5080368;28;19944;-71
2021/01/20 04:55:31;;;;;;;;;;;6.30;98.00;;;;;;5056987;28;19919;-72
2021/01/20 04:57:57;;;;;;;;;;;6.30;97.90;;;;;;5093092;22;19935;-72
2021/01/20 05:00:23;;;;;;;;;;;6.30;98.00;;;;;;5063794;28;19994;-72
2021/01/20 05:02:48;;;;;;;;;;;6.30;98.00;;;;;;5046458;28;20003;-72
2021/01/20 05:05:14;;;;;;;;;;;6.40;97.90;;;;;;5069108;28;19999;-72
2021/01/20 05:07:40;;;;;;;;;;;6.40;97.80;;;;;;5035234;28;19919;-71
2021/01/20 05:10:05;;;;;;;;;;;6.30;97.70;;;;;;5066695;28;20427;-73
2021/01/20 05:12:35;;;;;;;;;;;6.30;97.90;;;;;;5046245;28;20286;-72
2021/01/20 05:15:03;;;;;;;;;;;6.30;97.90;;;;;;5031251;28;19912;-72
2021/01/20 05:17:29;;;;;;;;;;;6.30;97.90;;;;;;5041950;28;19963;-72
2021/01/20 05:19:55;;;;;;;;;;;6.30;97.80;;;;;;5045643;28;19904;-73
2021/01/20 05:22:20;;;;;;;;;;;6.30;98.10;;;;;;5048824;28;19916;-72
2021/01/20 05:24:55;;;;;;;;;;;6.40;98.00;;;;;;5069749;28;19989;-72
2021/01/20 05:27:25;;;;;;;;;;;6.30;97.60;;;;;;5064357;28;19916;-73
2021/01/20 05:30:01;;;;;;;;;;;6.30;97.70;;;;;;5048818;28;19919;-72
2021/01/20 05:32:26;;;;;;;;;;;6.30;97.70;;;;;;5040493;28;19912;-73
2021/01/20 05:35:03;;;;;;;;;;;6.30;97.50;;;;;;5047837;28;20390;-72
2021/01/20 05:37:29;;;;;;;;;;;6.30;97.50;;;;;;5042980;28;19908;-72
2021/01/20 05:40:07;;;;;;;;;;;6.30;97.60;;;;;;5043454;28;19908;-72
2021/01/20 05:42:43;;;;;;;;;;;6.20;97.20;;;;;;5038469;28;19909;-72
2021/01/20 05:45:09;;;;;;;;;;;6.30;97.40;;;;;;5063313;28;19994;-72
2021/01/20 05:47:35;;;;;;;;;;;6.20;97.40;;;;;;5046635;28;19956;-72
2021/01/20 05:50:07;;;;;;;;;;;6.20;97.40;;;;;;5062677;28;19908;-72
2021/01/20 05:52:33;;;;;;;;;;;6.20;97.60;;;;;;5041889;28;19920;-79
2021/01/20 05:54:58;;;;;;;;;;;6.30;97.40;;;;;;5022157;28;19998;-78
2021/01/20 05:57:28;;;;;;;;;;;6.30;97.40;;;;;;5035713;28;19967;-79
2021/01/20 05:59:54;;;;;;;;;;;6.20;97.10;;;;;;5062134;28;19908;-79
2021/01/20 06:02:20;;;;;;;;;;;6.30;97.40;;;;;;5050776;28;19913;-76
2021/01/20 06:04:47;;;;;;;;;;;6.30;97.40;;;;;;5050458;28;19934;-73
2021/01/20 06:07:13;;;;;;;;;;;6.20;97.50;;;;;;5044875;28;19917;-73
2021/01/20 06:09:43;;;;;;;;;;;6.30;96.80;;;;;;5066114;28;20378;-73
2021/01/20 06:12:10;;;;;;;;;;;6.30;97.10;;;;;;5066565;28;19927;-71
2021/01/20 06:14:36;;;;;;;;;;;6.30;97.20;;;;;;5052800;28;19904;-73
2021/01/20 06:17:14;;;;;;;;;;;6.20;97.40;;;;;;5031908;28;19912;-73
2021/01/20 06:19:45;;;;;;;;;;;6.20;97.40;;;;;;5045979;28;20409;-73
2021/01/20 06:22:13;;;;;;;;;;;6.20;97.50;;;;;;5049583;28;19908;-73
2021/01/20 06:24:42;;;;;;;;;;;6.20;97.70;;;;;;5048068;28;20279;-73
2021/01/20 06:27:13;;;;;;;;;;;6.20;97.40;;;;;;5055387;28;19935;-74
2021/01/20 06:29:42;;;;;;;;;;;6.20;97.60;;;;;;5060077;28;19955;-73
2021/01/20 06:32:09;;;;;;;;;;;6.10;97.60;;;;;;5030848;28;19968;-73
2021/01/20 06:34:35;;;;;;;;;;;6.20;97.50;;;;;;5062983;28;19915;-75
2021/01/20 06:37:00;;;;;;;;;;;6.20;97.60;;;;;;5064642;28;19908;-75
2021/01/20 06:39:30;;;;;;;;;;;6.20;97.80;;;;;;5065229;28;20387;-75
2021/01/20 06:41:57;;;;;;;;;;;6.20;97.60;;;;;;5060745;28;19909;-78
2021/01/20 06:44:23;;;;;;;;;;;6.20;97.50;;;;;;5055121;28;19909;-77
2021/01/20 06:46:57;;;;;;;;;;;6.20;97.60;;;;;;5026441;28;19916;-76
2021/01/20 06:49:23;;;;;;;;;;;6.30;97.40;;;;;;5026953;28;19916;-73
2021/01/20 06:52:10;;;;;;;;;;;6.20;97.30;;;;;;5047368;28;19932;-73
2021/01/20 06:54:42;;;;;;;;;;;6.10;97.60;;;;;;5042825;28;20462;-74
2021/01/20 06:57:25;;;;;;;;;;;6.10;97.70;;;;;;5068826;28;19920;-72
2021/01/20 07:00:09;;;;;;;;;;;6.10;97.60;;;;;;5061969;28;19912;-74
2021/01/20 07:02:38;;;;;;;;;;;6.10;97.80;;;;;;5046146;28;19915;-73
2021/01/20 07:05:07;;;;;;;;;;;6.10;97.70;;;;;;5053345;28;19985;-73
2021/01/20 07:07:52;;;;;;;;;;;6.10;97.80;;;;;;5065534;28;19908;-72
2021/01/20 07:10:18;;;;;;;;;;;6.10;97.50;;;;;;5059526;28;20007;-73
2021/01/20 07:13:03;;;;;;;;;;;6.10;97.60;;;;;;5059786;28;19928;-73
2021/01/20 07:15:28;;;;;;;;;;;6.10;97.80;;;;;;5047396;28;19917;-73
2021/01/20 07:17:54;;;;;;;;;;;6.10;97.80;;;;;;5045337;28;19912;-73
2021/01/20 07:20:19;;;;;;;;;;;6.10;97.90;;;;;;5054980;28;19916;-73
2021/01/20 07:22:46;;;;;;;;;;;6.10;97.90;;;;;;5061153;28;19959;-73
2021/01/20 07:25:11;;;;;;;;;;;6.20;97.80;;;;;;5048444;28;19928;-79
2021/01/20 07:27:47;;;;;;;;;;;6.20;97.30;;;;;;5033548;28;19912;-78
2021/01/20 07:30:13;;;;;;;;;;;6.30;96.90;;;;;;5040145;28;19920;-79
2021/01/20 07:32:39;;;;;;;;;;;6.30;97.10;;;;;;5032576;28;19919;-72
2021/01/20 07:35:25;;;;;;;;;;;6.30;97.30;;;;;;5044032;28;19904;-71
2021/01/20 07:38:29;;;;;;;;;;;;;;;;;;;;;
2021/01/20 07:41:26;;;;;;;;;;;6.30;97.50;;;;;;5041302;28;20023;-76
2021/01/20 07:44:06;;;;;;;;;;;6.30;97.40;;;;;;5058866;28;19919;-71
2021/01/20 07:46:44;;;;;;;;;;;6.30;97.70;;;;;;5061666;28;20302;-72
2021/01/20 07:49:27;;;;;;;;;;;6.40;97.30;;;;;;5061788;28;19995;-70
2021/01/20 07:52:02;;;;;;;;;;;6.30;97.50;;;;;;5048985;28;19979;-71
2021/01/20 07:54:38;;;;;;;;;;;6.40;97.60;;;;;;5023622;28;19954;-72
2021/01/20 07:57:04;;;;;;;;;;;6.40;97.30;;;;;;5061064;28;19912;-73
2021/01/20 07:59:31;;;;;;;;;;;6.40;96.90;;;;;;5046947;28;19916;-77
2021/01/20 08:02:17;;;;;;;;;;;6.40;97.00;;;;;;5044435;28;19912;-72
2021/01/20 08:04:43;;;;;;;;;;;6.50;97.20;;;;;;5048428;28;20435;-72
2021/01/20 08:07:10;;;;;;;;;;;6.40;97.50;;;;;;5050088;28;19992;-73
2021/01/20 08:09:36;;;;;;;;;;;6.50;97.40;;;;;;5044677;28;19924;-72
2021/01/20 08:12:03;;;;;;;;;;;6.50;97.60;;;;;;5028718;28;19912;-72
2021/01/20 08:14:29;;;;;;;;;;;6.50;97.00;;;;;;5026275;28;19908;-72
2021/01/20 08:16:55;;;;;;;;;;;6.50;97.20;;;;;;5046306;28;19909;-71
2021/01/20 08:19:21;;;;;;;;;;;6.50;97.30;;;;;;5048907;28;20371;-71
2021/01/20 08:21:47;;;;;;;;;;;6.60;97.40;;;;;;5048640;28;19912;-71
2021/01/20 08:24:19;;;;;;;;;;;6.60;97.50;;;;;;5065493;28;19951;-71
2021/01/20 08:26:52;;;;;;;;;;;6.60;97.40;;;;;;5060749;28;19915;-71
2021/01/20 08:29:18;;;;;;;;;;;6.60;97.40;;;;;;5046790;28;19913;-78
2021/01/20 08:31:44;;;;;;;;;;;6.60;97.20;;;;;;5051754;28;19913;-77
2021/01/20 08:34:20;;;;;;;;;;;6.70;97.10;;;;;;5043379;28;19971;-70
2021/01/20 08:36:52;;;;;;;;;;;6.70;97.40;;;;;;5065691;28;19909;-70
2021/01/20 08:39:18;;;;;;;;;;;6.70;97.30;;;;;;5024203;28;19953;-69
2021/01/20 08:42:03;;;;;;;;;;;6.70;97.10;;;;;;5029827;28;19954;-72
2021/01/20 08:44:29;;;;;;;;;;;6.80;96.80;;;;;;5045499;28;20287;-72
2021/01/20 08:46:54;;;;;;;;;;;6.80;97.10;;;;;;5047469;28;19912;-72
2021/01/20 08:49:20;;;;;;;;;;;6.80;96.50;;;;;;5047973;28;19916;-70
2021/01/20 08:51:54;;;;;;;;;;;6.80;96.90;;;;;;5049927;28;20283;-71
2021/01/20 08:54:20;;;;;;;;;;;6.90;96.80;;;;;;5065077;28;20398;-70
2021/01/20 08:56:45;;;;;;;;;;;6.80;96.50;;;;;;5064123;28;20003;-71
2021/01/20 08:59:11;;;;;;;;;;;6.90;96.50;;;;;;5067568;28;19905;-71
2021/01/20 09:01:37;;;;;;;;;;;7.00;96.20;;;;;;5043632;28;19931;-70
2021/01/20 09:04:02;;;;;;;;;;;6.90;96.60;;;;;;5065555;28;19912;-72
2021/01/20 09:06:28;;;;;;;;;;;7.00;96.00;;;;;;5031312;28;20263;-69
2021/01/20 09:08:54;;;;;;;;;;;7.00;96.10;;;;;;5044489;28;19944;-71
2021/01/20 09:11:20;;;;;;;;;;;7.00;96.20;;;;;;5042016;28;19923;-69
2021/01/20 09:13:46;;;;;;;;;;;7.10;95.50;;;;;;5061719;28;19912;-70
2021/01/20 09:16:12;;;;;;;;;;;7.10;95.60;;;;;;5064167;28;19920;-71
2021/01/20 09:18:38;;;;;;;;;;;7.10;95.50;;;;;;5063064;28;19909;-74
2021/01/20 09:21:03;;;;;;;;;;;7.10;95.60;;;;;;5040730;28;19954;-72
2021/01/20 09:23:29;;;;;;;;;;;7.10;95.30;;;;;;5045304;28;19978;-73
2021/01/20 09:25:55;;;;;;;;;;;7.10;95.50;;;;;;5043470;28;19912;-73
2021/01/20 09:28:22;;;;;;;;;;;7.20;95.50;;;;;;5056347;28;20011;-72
2021/01/20 09:30:48;;;;;;;;;;;7.30;95.20;;;;;;5042490;28;19913;-73
2021/01/20 09:33:14;;;;;;;;;;;7.30;95.30;;;;;;5043672;28;20055;-72
2021/01/20 09:35:39;;;;;;;;;;;7.30;95.40;;;;;;5041361;28;20007;-72
2021/01/20 09:38:06;;;;;;;;;;;7.30;95.10;;;;;;5052965;28;20397;-72
2021/01/20 09:40:32;;;;;;;;;;;7.30;95.10;;;;;;5069275;28;19923;-71
2021/01/20 09:42:57;;;;;;;;;;;7.30;94.80;;;;;;5046404;28;19915;-72
2021/01/20 09:45:27;;;;;;;;;;;7.30;95.20;;;;;;5059836;28;19917;-72
2021/01/20 09:47:56;;;;;;;;;;;7.30;95.10;;;;;;5058444;28;19908;-71
2021/01/20 09:50:22;;;;;;;;;;;7.40;94.90;;;;;;5040456;28;19909;-72
2021/01/20 09:52:49;;;;;;;;;;;7.40;94.60;;;;;;5066170;28;20346;-72
2021/01/20 09:55:17;;;;;;;;;;;7.50;94.00;;;;;;5050991;28;19908;-71
2021/01/20 09:57:43;;;;;;;;;;;7.60;94.10;;;;;;5024666;28;19917;-71
2021/01/20 10:00:09;;;;;;;;;;;7.60;93.60;;;;;;5053622;28;20430;-72
2021/01/20 10:02:34;;;;;;;;;;;7.60;94.00;;;;;;5032258;28;19956;-71
2021/01/20 10:05:00;;;;;;;;;;;7.70;93.20;;;;;;5051501;28;19912;-71
2021/01/20 10:07:26;;;;;;;;;;;7.70;93.70;;;;;;5050138;28;20559;-71
2021/01/20 10:09:52;;;;;;;;;;;7.70;92.90;;;;;;5030627;28;19940;-70
2021/01/20 10:12:18;;;;;;;;;;;7.80;92.30;;;;;;5030868;28;19916;-72
2021/01/20 10:14:44;;;;;;;;;;;7.90;92.90;;;;;;5045729;28;19967;-71
2021/01/20 10:17:10;;;;;;;;;;;8.00;91.80;;;;;;5040601;28;19913;-70
2021/01/20 10:19:35;;;;;;;;;;;8.10;91.60;;;;;;5037099;28;21549;-71
2021/01/20 10:22:01;;;;;;;;;;;8.00;91.90;;;;;;5050546;28;19908;-73
2021/01/20 10:24:26;;;;;;;;;;;8.00;92.10;;;;;;5050513;28;19908;-72
2021/01/20 10:26:52;;;;;;;;;;;8.00;92.10;;;;;;5052497;28;20027;-72
2021/01/20 10:29:17;;;;;;;;;;;8.10;91.20;;;;;;5049441;28;19908;-71
2021/01/20 10:31:43;;;;;;;;;;;8.10;91.60;;;;;;5046318;28;19921;-71
2021/01/20 10:34:09;;;;;;;;;;;8.10;91.70;;;;;;5063537;28;20014;-72
2021/01/20 10:36:35;;;;;;;;;;;8.10;91.20;;;;;;5049695;28;19908;-71
2021/01/20 10:39:02;;;;;;;;;;;8.10;91.70;;;;;;5029773;28;19927;-71
2021/01/20 10:41:27;;;;;;;;;;;8.10;91.60;;;;;;5048605;28;19912;-72
2021/01/20 10:43:53;;;;;;;;;;;8.20;91.10;;;;;;5066403;28;19912;-72
2021/01/20 10:46:24;;;;;;;;;;;8.20;90.90;;;;;;5049706;28;19920;-72
2021/01/20 10:48:50;;;;;;;;;;;8.10;90.70;;;;;;5047589;28;19917;-71
2021/01/20 10:51:16;;;;;;;;;;;8.10;90.90;;;;;;5066308;28;19924;-71
2021/01/20 10:53:42;;;;;;;;;;;8.10;90.70;;;;;;5051291;28;20443;-71
2021/01/20 10:56:07;;;;;;;;;;;8.10;91.10;;;;;;5067885;28;20014;-72
2021/01/20 10:58:34;;;;;;;;;;;8.10;91.40;;;;;;5042110;28;19912;-71
2021/01/20 11:01:00;;;;;;;;;;;8.10;91.10;;;;;;5062771;28;19909;-71
2021/01/20 11:03:26;;;;;;;;;;;8.10;90.90;;;;;;5052909;28;19977;-70
2021/01/20 11:05:52;;;;;;;;;;;8.10;90.80;;;;;;5048798;28;20359;-71
2021/01/20 11:08:17;;;;;;;;;;;8.20;90.70;;;;;;5066176;28;19908;-71
2021/01/20 11:10:43;;;;;;;;;;;8.10;90.60;;;;;;5047755;28;19977;-71
2021/01/20 11:13:09;;;;;;;;;;;8.10;90.90;;;;;;5048015;28;19915;-71
2021/01/20 11:15:35;;;;;;;;;;;8.20;90.90;;;;;;5044754;28;19908;-71
2021/01/20 11:18:01;;;;;;;;;;;8.20;90.70;;;;;;5048416;28;19909;-71
2021/01/20 11:20:27;;;;;;;;;;;8.20;90.70;;;;;;5067073;28;20386;-72
2021/01/20 11:22:52;;;;;;;;;;;8.20;90.60;;;;;;5048341;28;20050;-71
2021/01/20 11:25:18;;;;;;;;;;;8.20;90.80;;;;;;5031062;28;19908;-71
2021/01/20 11:27:45;;;;;;;;;;;8.20;90.60;;;;;;5044740;28;19911;-70
2021/01/20 11:30:11;;;;;;;;;;;8.20;90.40;;;;;;5046252;28;19956;-71
2021/01/20 11:32:37;;;;;;;;;;;8.30;90.60;;;;;;5056379;28;19912;-72
2021/01/20 11:35:02;;;;;;;;;;;8.30;90.20;;;;;;5038987;28;19909;-71
2021/01/20 11:37:28;;;;;;;;;;;8.40;90.70;;;;;;5069590;28;19904;-71
2021/01/20 11:39:53;;;;;;;;;;;8.30;90.70;;;;;;5053462;28;19940;-72
2021/01/20 11:42:19;;;;;;;;;;;8.30;90.30;;;;;;5047689;28;19908;-72
2021/01/20 11:44:44;;;;;;;;;;;8.40;90.80;;;;;;5068554;28;20368;-73
2021/01/20 11:47:10;;;;;;;;;;;8.30;90.40;;;;;;5038926;28;19919;-73
2021/01/20 11:49:35;;;;;;;;;;;8.40;90.70;;;;;;5048788;28;19904;-73
2021/01/20 11:52:01;;;;;;;;;;;8.50;89.80;;;;;;5048013;28;19915;-74
2021/01/20 11:54:26;;;;;;;;;;;8.60;90.00;;;;;;5058967;28;19912;-74
2021/01/20 11:56:55;;;;;;;;;;;8.60;89.90;;;;;;5043492;28;20007;-73
2021/01/20 11:59:21;;;;;;;;;;;8.60;90.00;;;;;;5062489;28;19924;-73
2021/01/20 12:01:46;;;;;;;;;;;8.60;90.20;;;;;;5060016;28;20255;-75
2021/01/20 12:04:12;;;;;;;;;;;8.70;89.60;;;;;;5044077;28;19909;-71
2021/01/20 12:06:38;;;;;;;;;;;8.80;90.20;;;;;;5050137;28;19904;-73
2021/01/20 12:09:03;;;;;;;;;;;8.80;89.80;;;;;;5047731;28;19912;-70
2021/01/20 12:11:29;;;;;;;;;;;8.80;90.20;;;;;;5046032;28;19919;-71
2021/01/20 12:13:54;;;;;;;;;;;8.80;90.20;;;;;;5061779;28;19962;-72
2021/01/20 12:16:20;;;;;;;;;;;8.80;90.50;;;;;;5045944;28;19915;-74
2021/01/20 12:18:46;;;;;;;;;;;8.80;90.70;;;;;;5068232;28;20407;-74
2021/01/20 12:21:11;;;;;;;;;;;8.90;90.60;;;;;;5045985;28;20544;-74
2021/01/20 12:23:37;;;;;;;;;;;8.90;90.20;;;;;;5047661;28;19908;-73
2021/01/20 12:26:02;;;;;;;;;;;8.90;90.50;;;;;;5045697;28;19908;-74
2021/01/20 12:28:28;;;;;;;;;;;8.80;90.70;;;;;;5047555;28;19974;-73
2021/01/20 12:30:54;;;;;;;;;;;8.80;90.90;;;;;;5048248;28;20252;-73
2021/01/20 12:33:22;;;;;;;;;;;9.00;90.40;;;;;;5047756;28;19999;-73
2021/01/20 12:35:48;;;;;;;;;;;9.00;90.40;;;;;;5044005;28;19922;-71
2021/01/20 12:38:13;;;;;;;;;;;9.00;90.20;;;;;;5026439;28;20031;-73
2021/01/20 12:40:39;;;;;;;;;;;9.00;90.80;;;;;;5047071;28;19958;-71
2021/01/20 12:43:04;;;;;;;;;;;8.90;90.70;;;;;;5050582;28;19958;-73
2021/01/20 12:45:30;;;;;;;;;;;8.90;91.00;;;;;;5065910;28;19920;-71
2021/01/20 12:47:56;;;;;;;;;;;9.00;90.30;;;;;;5061613;28;19962;-70
2021/01/20 12:50:23;;;;;;;;;;;9.00;90.40;;;;;;5060175;28;19939;-71
2021/01/20 12:52:48;;;;;;;;;;;9.00;90.60;;;;;;5050294;28;19908;-71
2021/01/20 12:55:14;;;;;;;;;;;8.90;90.60;;;;;;5043257;28;19924;-70
2021/01/20 12:57:40;;;;;;;;;;;9.00;90.80;;;;;;5042953;28;19938;-71
2021/01/20 13:00:06;;;;;;;;;;;9.00;90.60;;;;;;5066644;28;19908;-70
2021/01/20 13:02:31;;;;;;;;;;;9.00;90.70;;;;;;5039497;28;19920;-73
2021/01/20 13:04:57;;;;;;;;;;;9.10;90.10;;;;;;5045004;28;20283;-71
2021/01/20 13:07:23;;;;;;;;;;;9.10;91.30;;;;;;5030314;28;19916;-71
2021/01/20 13:09:48;;;;;;;;;;;9.00;90.80;;;;;;5045152;28;19916;-70
2021/01/20 13:12:14;;;;;;;;;;;9.00;91.10;;;;;;5044118;28;20348;-71
2021/01/20 13:14:39;;;;;;;;;;;9.10;90.10;;;;;;5043120;28;20366;-71
2021/01/20 13:17:05;;;;;;;;;;;9.20;91.20;;;;;;5063936;28;20240;-71
2021/01/20 13:19:31;;;;;;;;;;;9.20;90.30;;;;;;5025416;28;19913;-70
2021/01/20 13:21:56;;;;;;;;;;;9.20;90.40;;;;;;5063947;28;20010;-71
2021/01/20 13:24:22;;;;;;;;;;;9.20;90.70;;;;;;5049034;28;19946;-72
2021/01/20 13:26:48;;;;;;;;;;;9.10;91.10;;;;;;5041615;28;20332;-71
2021/01/20 13:29:13;;;;;;;;;;;9.20;90.50;;;;;;5047756;28;19973;-71
2021/01/20 13:31:39;;;;;;;;;;;9.20;90.10;;;;;;5058056;28;19995;-71
2021/01/20 13:34:05;;;;;;;;;;;9.30;90.20;;;;;;5049444;28;19909;-71
2021/01/20 13:36:32;;;;;;;;;;;9.20;90.10;;;;;;5061612;28;20360;-72
2021/01/20 13:38:57;;;;;;;;;;;9.20;90.10;;;;;;5033842;28;19912;-72
2021/01/20 13:41:23;;;;;;;;;;;9.20;90.50;;;;;;5043023;28;19950;-71
2021/01/20 13:43:48;;;;;;;;;;;9.20;90.40;;;;;;5046388;28;20263;-73
2021/01/20 13:46:14;;;;;;;;;;;9.20;90.50;;;;;;5027302;28;19908;-72
2021/01/20 13:48:40;;;;;;;;;;;9.20;90.40;;;;;;5049012;28;19958;-72
2021/01/20 13:51:05;;;;;;;;;;;9.30;90.20;;;;;;5056978;28;19967;-72
2021/01/20 13:53:31;;;;;;;;;;;9.30;90.40;;;;;;5042077;28;19995;-72
2021/01/20 13:55:56;;;;;;;;;;;9.30;90.60;;;;;;5061773;28;19915;-72
2021/01/20 13:58:22;;;;;;;;;;;9.40;90.10;;;;;;5049333;28;19952;-72
2021/01/20 14:00:47;;;;;;;;;;;9.40;88.90;;;;;;5065642;28;19909;-72
2021/01/20 14:03:13;;;;;;;;;;;9.50;88.60;;;;;;5043099;28;19908;-72
2021/01/20 14:05:39;;;;;;;;;;;9.50;89.50;;;;;;5046056;28;20431;-72
2021/01/20 14:08:07;;;;;;;;;;;9.60;87.30;;;;;;5028664;28;19916;-72
2021/01/20 14:10:33;;;;;;;;;;;9.60;88.00;;;;;;5059308;28;19909;-72
2021/01/20 14:12:58;;;;;;;;;;;9.60;88.00;;;;;;5063357;28;19915;-73
2021/01/20 14:15:24;;;;;;;;;;;9.60;87.40;;;;;;5026526;28;19916;-71
2021/01/20 14:17:49;;;;;;;;;;;9.60;87.50;;;;;;5045071;28;20222;-72
2021/01/20 14:20:15;;;;;;;;;;;9.60;86.50;;;;;;5061687;28;20260;-72
2021/01/20 14:22:41;;;;;;;;;;;9.60;87.00;;;;;;5048992;28;19909;-72
2021/01/20 14:25:06;;;;;;;;;;;9.60;87.40;;;;;;5043684;28;19915;-72
2021/01/20 14:27:34;;;;;;;;;;;9.60;86.70;;;;;;5047974;28;19909;-71
2021/01/20 14:30:03;;;;;;;;;;;9.60;87.10;;;;;;5035195;28;20022;-72
2021/01/20 14:32:29;;;;;;;;;;;9.60;86.70;;;;;;5059069;28;19912;-73